PAFR METAR and TAF weather

Enter ICAO airport designator
Station Type Date Time Source
PAFR METAR 2021/04/13 22:58 UTC NOAA

PAFR 132258Z AUTO 00000KT 4SM HZ FEW055 SCT075 06/M02 A2999 RMK AO2 SLP164 T00611019 PNO $


Station Type Date Time Source
PAFR Decoded METAR 2021/04/13 22:58 UTC NOAA

Ft. Richardson / Bryant U. S. Army Heliport, Ak, AK, United States (PAFR) 61-16N 149-39W 115M
Apr 13, 2021 - 06:58 PM EDT / 2021.04.13 2258 UTC
Wind: Calm:0
Visibility: 4 mile(s):0
Sky conditions: partly cloudy
Weather: haze
Temperature: 43.0 F (6.1 C)
Dew Point: 28.6 F (-1.9 C)
Relative Humidity: 56%
Pressure (altimeter): 29.99 in. Hg (1015 hPa)
ob: PAFR 132258Z AUTO 00000KT 4SM HZ FEW055 SCT075 06/M02 A2999 RMK AO2 SLP164 T00611019 PNO
cycle: 23

Station Type Date Time Source
PAFR TAF UTC NOAA

Error!

Example: see airport list